Terminal Aerodrome Forecast
Issued by NWS

Home | Current Version | Previous Version | Text Only | Print | Product List | Glossary On
Versions: 1 2 3 4 5 6 7 8 9 10 11 12 13 14 15 16
000
FTUS46 KMTR 030500
TAFOAK
TAF
KOAK 030525Z 0306/0412 26010KT P6SM FEW008 BKN200
     FM030800 26007KT P6SM OVC009
     FM031400 24008KT P6SM BKN012 OVC020
     FM031900 26015KT P6SM FEW020
     FM040300 26011KT P6SM FEW015 SCT200
     FM040900 25011KT P6SM OVC015=

USA.gov is the U.S. government's official web portal to all federal, state and local government web resources and services.